This is the latest recevied weather packets stored in our database for station/object PD3EM. If no packets are shown the sender has not sent any weather packets the latest 10 day(s).
| Time | Temp. | Humidity | Pressure | Rain* | Wind** | Luminosity | Snow |
|---|---|---|---|---|---|---|---|
| 1776990305 | 4.44° C | 88% | 1028.4 hPa | 0 mm | - | 0 W/m² | - |
| 1776986197 | 5.56° C | 87% | 1029 hPa | 0 mm | - | 0 W/m² | - |
| 1776984373 | 6.11° C | 85% | 1029 hPa | 0 mm | - | 0 W/m² | - |
| 1776983752 | 6.67° C | 85% | 1029 hPa | 0 mm | - | 0 W/m² | - |
| 1776983150 | 6.67° C | 85% | 1029.1 hPa | 0 mm | - | 0 W/m² | - |
| 1776979543 | 6.67° C | 81% | 1029.3 hPa | 0 mm | - | 0 W/m² | - |
| 1776965714 | 14.44° C | 59% | 1029.3 hPa | 0 mm | - | 32 W/m² | - |
| 1776959703 | 16.11° C | 58% | 1030 hPa | 0 mm | - | 268 W/m² | - |
| 1776954953 | 16.11° C | 56% | 1030.4 hPa | 0 mm | - | 425 W/m² | - |
| 1776954392 | 16.11° C | 56% | 1030.5 hPa | 0 mm | - | 444 W/m² | - |
| 1776948340 | 15.56° C | 64% | 1031.3 hPa | 0 mm | - | 572 W/m² | - |
| 1776947157 | 15° C | 64% | 1031.5 hPa | 0 mm | - | 582 W/m² | - |
| 1776945354 | 15° C | 64% | 1031.8 hPa | 0 mm | - | 607 W/m² | - |
| 1776944772 | 15° C | 65% | 1031.7 hPa | 0 mm | - | 606 W/m² | - |
| 1776942929 | 15° C | 67% | 1032 hPa | 0 mm | - | 610 W/m² | - |
| 1776935113 | 11.67° C | 77% | 1032.8 hPa | 0 mm | - | 478 W/m² | - |
| 1776933910 | 10.56° C | 78% | 1032.8 hPa | 0 mm | - | 437 W/m² | - |
| 1776932147 | 10° C | 82% | 1032.9 hPa | 0 mm | - | 366 W/m² | - |
| 1776927297 | 6.67° C | 92% | 1032.5 hPa | 0 mm | - | 133 W/m² | - |
| 1776924291 | 5.56° C | 94% | 1032 hPa | 0 mm | - | 62 W/m² | - |
| 1776923730 | 5.56° C | 94% | 1031.9 hPa | 0 mm | - | 46 W/m² | - |
| 1776920082 | 4.44° C | 91% | 1031.5 hPa | 0 mm | - | 9 W/m² | - |
| 1776919481 | 3.89° C | 90% | 1031.3 hPa | 0 mm | - | 6 W/m² | - |
| 1776918880 | 3.89° C | 89% | 1031.2 hPa | 0 mm | - | 3 W/m² | - |
| 1776912868 | 5° C | 85% | 1030.7 hPa | 0 mm | - | 0 W/m² | - |
* Rain latest hour (hover to see other rain measurements)
** Current wind speed in m/s (hover to see current wind gust speed)